createdAt,value
2022-12-07T00:00:37.690Z,15.80
2022-12-07T00:01:37.659Z,19.10
2022-12-07T00:02:37.738Z,16.70
2022-12-07T00:03:37.722Z,16.80
2022-12-07T00:04:37.650Z,18.10
2022-12-07T00:05:37.628Z,16.00
2022-12-07T00:06:37.621Z,18.20
2022-12-07T00:07:37.667Z,17.20
2022-12-07T00:08:37.598Z,16.70
2022-12-07T00:09:37.605Z,19.10
2022-12-07T00:10:37.590Z,16.20
2022-12-07T00:11:37.561Z,18.80
2022-12-07T00:12:37.572Z,18.20
2022-12-07T00:13:37.549Z,19.60
2022-12-07T00:14:37.541Z,19.40
2022-12-07T00:15:37.532Z,19.30
2022-12-07T00:16:37.592Z,19.00
2022-12-07T00:17:37.513Z,17.80
2022-12-07T00:18:37.495Z,19.20
2022-12-07T00:19:37.474Z,20.30
2022-12-07T00:20:37.493Z,18.30
2022-12-07T00:21:37.453Z,21.40
2022-12-07T00:22:37.754Z,18.70
2022-12-07T00:23:37.453Z,19.80
2022-12-07T00:24:37.435Z,20.70
2022-12-07T00:25:37.415Z,19.60
2022-12-07T00:26:37.416Z,22.20
2022-12-07T00:27:37.427Z,20.10
2022-12-07T00:28:37.395Z,20.30
2022-12-07T00:29:37.380Z,21.90
2022-12-07T00:30:37.366Z,21.00
2022-12-07T00:31:37.371Z,22.00
2022-12-07T00:32:37.369Z,19.90
2022-12-07T00:33:37.345Z,21.80
2022-12-07T00:34:37.327Z,21.50
2022-12-07T00:35:37.338Z,22.20
2022-12-07T00:36:37.308Z,21.90
2022-12-07T00:37:37.307Z,20.00
2022-12-07T00:38:37.299Z,21.40
2022-12-07T00:39:38.047Z,21.20
2022-12-07T00:40:37.272Z,20.20
2022-12-07T00:41:37.284Z,22.20
2022-12-07T00:42:37.282Z,19.90
2022-12-07T00:43:37.233Z,21.60
2022-12-07T00:44:37.227Z,21.20
2022-12-07T00:45:37.264Z,21.30
2022-12-07T00:46:37.214Z,22.60
2022-12-07T00:47:37.215Z,19.70
2022-12-07T00:48:37.193Z,22.00
2022-12-07T00:49:37.171Z,22.40
2022-12-07T00:50:37.180Z,18.30
2022-12-07T00:51:37.151Z,22.70
2022-12-07T00:52:37.162Z,21.00
2022-12-07T00:53:41.311Z,20.70
2022-12-07T00:54:37.123Z,22.90
2022-12-07T00:55:37.113Z,21.10
2022-12-07T00:56:37.110Z,21.10
2022-12-07T00:57:37.113Z,23.80
2022-12-07T00:58:37.085Z,21.50
2022-12-07T00:59:37.073Z,24.60
2022-12-07T01:00:37.078Z,22.90
2022-12-07T01:01:37.155Z,22.80
2022-12-07T01:02:37.064Z,25.00
2022-12-07T01:03:37.062Z,22.40
2022-12-07T01:04:37.021Z,25.70
2022-12-07T01:05:37.004Z,23.40
2022-12-07T01:06:37.005Z,23.60
2022-12-07T01:07:37.059Z,26.20
2022-12-07T01:08:37.033Z,22.90
2022-12-07T01:09:36.965Z,25.50
2022-12-07T01:10:36.965Z,24.00
2022-12-07T01:11:36.950Z,22.20
2022-12-07T01:12:36.958Z,25.60
2022-12-07T01:13:36.925Z,23.30
2022-12-07T01:14:36.918Z,22.70
2022-12-07T01:15:36.917Z,26.20
2022-12-07T01:16:36.950Z,24.00
2022-12-07T01:17:36.897Z,26.20
2022-12-07T01:18:36.898Z,27.30
2022-12-07T01:19:36.865Z,24.90
2022-12-07T01:20:36.859Z,27.90
2022-12-07T01:21:36.849Z,26.20
2022-12-07T01:22:36.857Z,28.30
2022-12-07T01:23:36.829Z,27.20
2022-12-07T01:24:36.818Z,26.10
2022-12-07T01:25:36.800Z,29.00
2022-12-07T01:26:36.800Z,25.50
2022-12-07T01:27:36.800Z,26.00
2022-12-07T01:28:36.779Z,28.80
2022-12-07T01:29:36.761Z,26.00
2022-12-07T01:30:36.826Z,28.90
2022-12-07T01:31:36.735Z,28.90
2022-12-07T01:32:36.760Z,26.60
2022-12-07T01:33:36.712Z,30.10
2022-12-07T01:34:36.714Z,28.20
2022-12-07T01:35:36.694Z,27.70
2022-12-07T01:36:36.711Z,28.50
2022-12-07T01:37:36.695Z,29.30
2022-12-07T01:38:36.674Z,31.20
2022-12-07T01:39:36.654Z,29.00
2022-12-07T01:40:36.652Z,28.70
2022-12-07T01:41:36.636Z,31.90
2022-12-07T01:42:36.644Z,27.80
2022-12-07T01:43:36.615Z,30.00
2022-12-07T01:44:36.612Z,29.20
2022-12-07T01:45:36.602Z,27.80
2022-12-07T01:46:36.649Z,30.40
2022-12-07T01:47:36.594Z,28.20
2022-12-07T01:48:36.565Z,27.00
2022-12-07T01:49:36.566Z,31.00
2022-12-07T01:50:36.539Z,28.00
2022-12-07T01:51:36.539Z,30.80
2022-12-07T01:52:36.537Z,28.10
2022-12-07T01:53:36.519Z,29.70
2022-12-07T01:54:36.519Z,28.90
2022-12-07T01:55:36.499Z,27.80
2022-12-07T01:56:36.477Z,30.90
2022-12-07T01:57:36.498Z,29.60
2022-12-07T01:58:36.460Z,30.80
2022-12-07T01:59:36.455Z,28.50
2022-12-07T02:00:36.438Z,32.30
2022-12-07T02:01:36.535Z,29.20
2022-12-07T02:02:36.495Z,32.10
2022-12-07T02:03:36.418Z,30.40
2022-12-07T02:04:36.397Z,30.70
2022-12-07T02:05:36.391Z,33.00
2022-12-07T02:06:36.380Z,28.80
2022-12-07T02:07:36.452Z,34.80
2022-12-07T02:08:36.358Z,30.20
2022-12-07T02:09:36.350Z,30.40
2022-12-07T02:10:36.331Z,32.40
2022-12-07T02:11:36.331Z,30.20
2022-12-07T02:12:36.332Z,34.70
2022-12-07T02:13:36.313Z,31.90
2022-12-07T02:14:36.293Z,32.20
2022-12-07T02:15:36.361Z,34.50
2022-12-07T02:16:36.274Z,31.90
2022-12-07T02:17:36.336Z,36.70
2022-12-07T02:18:36.268Z,33.80
2022-12-07T02:19:36.252Z,33.60
2022-12-07T02:20:36.238Z,37.50
2022-12-07T02:21:36.237Z,34.90
2022-12-07T02:22:36.235Z,37.30
2022-12-07T02:23:36.212Z,35.90
2022-12-07T02:24:36.196Z,36.50
2022-12-07T02:25:36.185Z,37.30
2022-12-07T02:26:36.177Z,36.60
2022-12-07T02:27:36.184Z,36.20
2022-12-07T02:28:36.146Z,38.70
2022-12-07T02:29:36.146Z,36.50
2022-12-07T02:30:36.195Z,39.70
2022-12-07T02:31:36.172Z,36.70
2022-12-07T02:32:36.126Z,36.20
2022-12-07T02:33:36.113Z,39.70
2022-12-07T02:34:36.089Z,35.20
2022-12-07T02:35:36.087Z,34.70
2022-12-07T02:36:36.078Z,36.90
2022-12-07T02:37:36.079Z,35.50
2022-12-07T02:38:36.048Z,39.30
2022-12-07T02:39:36.040Z,39.10
2022-12-07T02:40:36.040Z,40.00
2022-12-07T02:41:36.029Z,41.20
2022-12-07T02:42:36.019Z,36.70
2022-12-07T02:43:35.999Z,40.30
2022-12-07T02:44:35.989Z,35.60
2022-12-07T02:45:35.979Z,37.50
2022-12-07T02:46:36.051Z,35.50
2022-12-07T02:47:35.992Z,36.30
2022-12-07T02:48:35.949Z,36.80
2022-12-07T02:49:35.945Z,33.70
2022-12-07T02:50:35.931Z,34.00
2022-12-07T02:51:35.923Z,36.10
2022-12-07T02:52:35.926Z,28.40
2022-12-07T02:53:35.903Z,29.80
2022-12-07T02:54:35.883Z,23.80
2022-12-07T02:55:35.884Z,22.30
2022-12-07T02:56:35.863Z,23.20
2022-12-07T02:57:35.872Z,20.90
2022-12-07T02:58:35.843Z,18.10
2022-12-07T02:59:35.834Z,19.90
2022-12-07T03:00:35.814Z,16.90
2022-12-07T03:01:35.877Z,16.90
2022-12-07T03:02:35.849Z,19.20
2022-12-07T03:03:35.797Z,16.10
2022-12-07T03:04:35.777Z,16.30
2022-12-07T03:05:35.786Z,17.50
2022-12-07T03:06:35.768Z,17.00
2022-12-07T03:07:35.887Z,16.70
2022-12-07T03:08:35.735Z,19.20
2022-12-07T03:09:35.735Z,16.40
2022-12-07T03:10:35.725Z,17.00
2022-12-07T03:11:35.708Z,19.00
2022-12-07T03:12:35.723Z,18.00
2022-12-07T03:13:35.693Z,18.30
2022-12-07T03:14:35.677Z,20.40
2022-12-07T03:15:35.722Z,18.50
2022-12-07T03:16:35.658Z,18.90
2022-12-07T03:17:35.671Z,21.40
2022-12-07T03:18:35.630Z,19.40
2022-12-07T03:19:35.629Z,19.30
2022-12-07T03:20:35.616Z,22.20
2022-12-07T03:21:35.609Z,19.80
2022-12-07T03:22:35.614Z,21.20
2022-12-07T03:23:35.591Z,23.40
2022-12-07T03:24:35.572Z,20.30
2022-12-07T03:25:35.562Z,23.20
2022-12-07T03:26:35.550Z,21.80
2022-12-07T03:27:35.573Z,20.70
2022-12-07T03:28:35.546Z,22.10
2022-12-07T03:29:35.529Z,21.10
2022-12-07T03:30:35.511Z,20.50
2022-12-07T03:31:35.540Z,23.50
2022-12-07T03:32:35.535Z,20.50
2022-12-07T03:33:35.482Z,21.90
2022-12-07T03:34:35.462Z,22.30
2022-12-07T03:35:35.465Z,20.80
2022-12-07T03:36:35.450Z,23.40
2022-12-07T03:37:35.462Z,20.80
2022-12-07T03:38:35.437Z,23.00
2022-12-07T03:39:35.425Z,22.60
2022-12-07T03:40:35.406Z,20.10
2022-12-07T03:41:37.676Z,22.40
2022-12-07T03:42:35.406Z,19.50
2022-12-07T03:43:35.376Z,18.60
2022-12-07T03:44:35.384Z,20.50
2022-12-07T03:45:35.364Z,19.60
2022-12-07T03:46:35.438Z,19.40
2022-12-07T03:47:35.367Z,19.50
2022-12-07T03:48:35.328Z,16.60
2022-12-07T03:49:35.326Z,18.40
2022-12-07T03:50:35.307Z,15.00
2022-12-07T03:51:35.300Z,15.80
2022-12-07T03:52:35.300Z,14.70
2022-12-07T03:53:35.297Z,14.50
2022-12-07T03:54:35.288Z,11.40
2022-12-07T03:55:35.259Z,11.20
2022-12-07T03:56:35.238Z,13.30
2022-12-07T03:57:35.259Z,10.30
2022-12-07T03:58:35.219Z,9.00
2022-12-07T03:59:35.218Z,10.30
2022-12-07T04:00:35.198Z,9.80
2022-12-07T04:01:35.257Z,10.80
2022-12-07T04:02:35.229Z,9.90
2022-12-07T04:03:35.173Z,9.30
2022-12-07T04:04:35.160Z,11.50
2022-12-07T04:05:35.154Z,10.10
2022-12-07T04:06:35.140Z,10.10
2022-12-07T04:07:35.250Z,12.70
2022-12-07T04:08:35.114Z,13.00
2022-12-07T04:09:35.109Z,12.80
2022-12-07T04:10:35.099Z,14.40
2022-12-07T04:11:35.094Z,16.00
2022-12-07T04:12:35.092Z,14.10
2022-12-07T04:13:35.079Z,14.30
2022-12-07T04:14:35.063Z,17.60
2022-12-07T04:15:35.051Z,14.30
2022-12-07T04:16:38.476Z,15.30
2022-12-07T04:17:36.043Z,16.50
2022-12-07T04:18:35.014Z,14.60
2022-12-07T04:19:35.010Z,17.60
2022-12-07T04:20:34.996Z,15.30
2022-12-07T04:21:34.984Z,14.90
2022-12-07T04:22:34.985Z,17.10
2022-12-07T04:23:34.965Z,15.10
2022-12-07T04:24:34.956Z,17.60
2022-12-07T04:25:34.948Z,16.00
2022-12-07T04:26:34.927Z,14.80
2022-12-07T04:27:34.942Z,16.80
2022-12-07T04:28:34.908Z,15.30
2022-12-07T04:29:34.912Z,16.10
2022-12-07T04:30:34.903Z,14.80
2022-12-07T04:31:34.964Z,14.60
2022-12-07T04:32:34.878Z,15.00
2022-12-07T04:33:34.880Z,16.30
2022-12-07T04:34:34.847Z,15.40
2022-12-07T04:35:34.838Z,14.20
2022-12-07T04:36:34.828Z,14.70
2022-12-07T04:37:34.824Z,16.90
2022-12-07T04:38:34.824Z,13.70
2022-12-07T04:39:34.827Z,15.10
2022-12-07T04:40:34.790Z,15.40
2022-12-07T04:41:34.780Z,13.80
2022-12-07T04:42:34.760Z,17.20
2022-12-07T04:43:34.778Z,14.20
2022-12-07T04:44:34.740Z,15.40
2022-12-07T04:45:34.737Z,16.10
2022-12-07T04:46:34.761Z,13.90
2022-12-07T04:47:34.719Z,14.20
2022-12-07T04:48:34.731Z,15.10
2022-12-07T04:49:34.701Z,14.80
2022-12-07T04:50:34.701Z,15.00
2022-12-07T04:51:34.673Z,14.90
2022-12-07T04:52:34.661Z,14.40
2022-12-07T04:53:34.673Z,15.50
2022-12-07T04:54:34.650Z,14.70
2022-12-07T04:55:34.635Z,13.30
2022-12-07T04:56:34.613Z,15.40
2022-12-07T04:57:34.628Z,13.20
2022-12-07T04:58:34.633Z,14.70
2022-12-07T04:59:34.594Z,14.90
2022-12-07T05:00:34.629Z,14.60
2022-12-07T05:01:34.575Z,16.20
2022-12-07T05:02:34.632Z,14.00
2022-12-07T05:03:34.574Z,13.20
2022-12-07T05:04:34.537Z,13.90
2022-12-07T05:05:34.534Z,13.30
2022-12-07T05:06:34.518Z,15.00
2022-12-07T05:07:34.536Z,13.50
2022-12-07T05:08:34.507Z,12.50
2022-12-07T05:09:34.488Z,15.00
2022-12-07T05:10:34.476Z,12.70
2022-12-07T05:11:34.481Z,14.60
2022-12-07T05:12:34.459Z,14.10
2022-12-07T05:13:34.469Z,13.00
2022-12-07T05:14:34.435Z,14.60
2022-12-07T05:15:34.427Z,13.30
2022-12-07T05:16:34.514Z,12.80
2022-12-07T05:17:34.413Z,13.40
2022-12-07T05:18:34.410Z,12.50
2022-12-07T05:19:34.425Z,12.90
2022-12-07T05:20:39.173Z,12.40
2022-12-07T05:21:35.359Z,12.80
2022-12-07T05:22:34.351Z,13.30
2022-12-07T05:23:34.361Z,12.80
2022-12-07T05:24:34.331Z,11.90
2022-12-07T05:25:34.334Z,13.20
2022-12-07T05:26:34.308Z,12.90
2022-12-07T05:27:34.304Z,12.50
2022-12-07T05:28:34.309Z,13.50
2022-12-07T05:29:34.304Z,12.00
2022-12-07T05:30:34.263Z,12.50
2022-12-07T05:31:34.308Z,12.10
2022-12-07T05:32:34.251Z,13.50
2022-12-07T05:33:34.270Z,12.70
2022-12-07T05:34:34.233Z,13.10
2022-12-07T05:35:34.293Z,13.40
2022-12-07T05:36:34.204Z,12.40
2022-12-07T05:37:34.204Z,12.90
2022-12-07T05:38:34.204Z,13.80
2022-12-07T05:39:34.176Z,11.70
2022-12-07T05:40:34.166Z,12.70
2022-12-07T05:41:34.164Z,12.60
2022-12-07T05:42:34.137Z,12.00
2022-12-07T05:43:34.176Z,12.10
2022-12-07T05:44:34.118Z,11.80
2022-12-07T05:45:34.206Z,11.60
2022-12-07T05:46:34.113Z,13.40
2022-12-07T05:47:34.116Z,11.30
2022-12-07T05:48:34.104Z,12.20
2022-12-07T05:49:34.075Z,14.00
2022-12-07T05:50:34.057Z,11.20
2022-12-07T05:51:34.058Z,11.60
2022-12-07T05:52:34.048Z,12.50
2022-12-07T05:53:34.048Z,12.30
2022-12-07T05:54:34.018Z,11.50
2022-12-07T05:55:34.009Z,13.50
2022-12-07T05:56:34.000Z,11.90
2022-12-07T05:57:34.000Z,11.40
2022-12-07T05:58:33.997Z,11.30
2022-12-07T05:59:33.973Z,11.00
2022-12-07T06:00:33.963Z,11.30
2022-12-07T06:01:34.140Z,13.60
2022-12-07T06:02:34.134Z,12.20
2022-12-07T06:03:33.995Z,12.10
2022-12-07T06:04:33.925Z,13.00
2022-12-07T06:05:33.904Z,11.10
2022-12-07T06:06:33.962Z,11.80
2022-12-07T06:07:33.949Z,11.10
2022-12-07T06:08:33.905Z,12.90
2022-12-07T06:09:33.862Z,11.00
2022-12-07T06:10:33.862Z,11.40
2022-12-07T06:11:33.844Z,10.60
2022-12-07T06:12:33.834Z,10.50
2022-12-07T06:13:33.847Z,12.10
2022-12-07T06:14:33.817Z,11.30
2022-12-07T06:15:33.802Z,11.30
2022-12-07T06:16:33.843Z,10.80
2022-12-07T06:17:33.782Z,11.90
2022-12-07T06:18:33.798Z,11.20
2022-12-07T06:19:33.756Z,10.60
2022-12-07T06:20:33.757Z,11.90
2022-12-07T06:21:33.743Z,10.70
2022-12-07T06:22:33.736Z,10.80
2022-12-07T06:23:33.737Z,10.30
2022-12-07T06:24:33.707Z,9.90
2022-12-07T06:25:33.703Z,12.40
2022-12-07T06:26:33.688Z,11.00
2022-12-07T06:27:33.678Z,10.50
2022-12-07T06:28:33.687Z,10.90
2022-12-07T06:29:33.665Z,10.60
2022-12-07T06:30:33.648Z,10.30
2022-12-07T06:31:33.770Z,10.20
2022-12-07T06:32:33.628Z,9.50
2022-12-07T06:33:33.638Z,9.80
2022-12-07T06:34:33.620Z,9.80
2022-12-07T06:35:33.590Z,8.80
2022-12-07T06:36:33.588Z,9.30
2022-12-07T06:37:33.576Z,9.70
2022-12-07T06:38:33.589Z,7.90
2022-12-07T06:39:33.552Z,9.20
2022-12-07T06:40:33.562Z,8.90
2022-12-07T06:41:33.535Z,11.00
2022-12-07T06:42:33.531Z,8.90
2022-12-07T06:43:33.530Z,8.60
2022-12-07T06:44:33.502Z,9.20
2022-12-07T06:45:33.479Z,9.10
2022-12-07T06:46:33.484Z,9.00
2022-12-07T06:47:41.773Z,9.10
2022-12-07T06:48:34.481Z,8.30
2022-12-07T06:49:33.456Z,9.40
2022-12-07T06:50:33.447Z,9.40
2022-12-07T06:51:33.551Z,9.40
2022-12-07T06:52:33.423Z,8.70
2022-12-07T06:53:33.383Z,9.20
2022-12-07T06:54:33.344Z,10.00
2022-12-07T06:55:33.334Z,9.30
2022-12-07T06:56:33.336Z,8.50
2022-12-07T06:57:33.316Z,9.50
2022-12-07T06:58:33.324Z,8.10
2022-12-07T06:59:33.302Z,9.60
2022-12-07T07:00:33.285Z,8.50
2022-12-07T07:01:33.402Z,8.20
2022-12-07T07:02:33.314Z,8.90
2022-12-07T07:03:33.269Z,8.60
2022-12-07T07:04:33.244Z,8.70
2022-12-07T07:05:33.229Z,8.30
2022-12-07T07:06:33.233Z,8.50
2022-12-07T07:07:41.659Z,8.30
2022-12-07T07:08:34.298Z,8.10
2022-12-07T07:09:33.187Z,8.50
2022-12-07T07:10:33.180Z,8.30
2022-12-07T07:11:33.179Z,9.20
2022-12-07T07:12:33.168Z,8.80
2022-12-07T07:13:33.171Z,8.40
2022-12-07T07:14:33.149Z,8.80
2022-12-07T07:15:33.129Z,9.20
2022-12-07T07:16:33.154Z,8.10
2022-12-07T07:17:33.109Z,8.10
2022-12-07T07:18:33.112Z,9.40
2022-12-07T07:19:33.082Z,8.80
2022-12-07T07:20:33.080Z,9.20
2022-12-07T07:21:33.062Z,8.20
2022-12-07T07:22:33.062Z,9.20
2022-12-07T07:23:33.062Z,9.70
2022-12-07T07:24:33.043Z,9.20
2022-12-07T07:25:33.118Z,9.10
2022-12-07T07:26:33.014Z,9.10
2022-12-07T07:27:33.013Z,9.90
2022-12-07T07:28:33.014Z,9.50
2022-12-07T07:29:32.986Z,9.60
2022-12-07T07:30:33.035Z,10.30
2022-12-07T07:31:32.973Z,9.30
2022-12-07T07:32:32.956Z,9.40
2022-12-07T07:33:32.956Z,10.30
2022-12-07T07:34:32.936Z,9.10
2022-12-07T07:35:32.917Z,10.10
2022-12-07T07:36:32.916Z,10.10
2022-12-07T07:37:32.906Z,9.40
2022-12-07T07:38:32.917Z,9.40
2022-12-07T07:39:32.877Z,10.40
2022-12-07T07:40:32.897Z,8.70
2022-12-07T07:41:32.880Z,9.10
2022-12-07T07:42:32.869Z,8.50
2022-12-07T07:43:32.856Z,8.60
2022-12-07T07:44:35.340Z,10.10
2022-12-07T07:45:32.818Z,8.50
2022-12-07T07:46:32.875Z,8.60
2022-12-07T07:47:32.809Z,9.10
2022-12-07T07:48:32.814Z,8.30
2022-12-07T07:49:32.779Z,8.30
2022-12-07T07:50:32.771Z,8.10
2022-12-07T07:51:32.754Z,8.90
2022-12-07T07:52:32.748Z,8.00
2022-12-07T07:53:32.756Z,9.20
2022-12-07T07:54:32.732Z,9.00
2022-12-07T07:55:32.719Z,8.80
2022-12-07T07:56:32.716Z,10.00
2022-12-07T07:57:32.692Z,8.60
2022-12-07T07:58:32.702Z,9.00
2022-12-07T07:59:32.676Z,8.40
2022-12-07T08:00:32.673Z,9.10
2022-12-07T08:01:32.753Z,9.80
2022-12-07T08:02:32.643Z,8.40
2022-12-07T08:03:32.643Z,8.70
2022-12-07T08:04:32.656Z,8.90
2022-12-07T08:05:32.605Z,7.50
2022-12-07T08:06:32.821Z,7.80
2022-12-07T08:07:32.595Z,8.30
2022-12-07T08:08:32.628Z,7.70
2022-12-07T08:09:32.564Z,7.50
2022-12-07T08:10:32.556Z,6.80
2022-12-07T08:11:32.545Z,6.90
2022-12-07T08:12:32.537Z,7.70
2022-12-07T08:13:32.547Z,7.10
2022-12-07T08:14:32.516Z,7.40
2022-12-07T08:15:32.612Z,7.40
2022-12-07T08:16:32.591Z,7.00
2022-12-07T08:17:32.487Z,7.20
2022-12-07T08:18:32.487Z,7.40
2022-12-07T08:19:32.484Z,7.50
2022-12-07T08:20:32.458Z,7.60
2022-12-07T08:21:32.438Z,6.90
2022-12-07T08:22:32.438Z,7.10
2022-12-07T08:23:39.207Z,7.20
2022-12-07T08:24:33.440Z,7.30
2022-12-07T08:25:32.402Z,7.70
2022-12-07T08:26:32.397Z,8.30
2022-12-07T08:27:32.389Z,6.70
2022-12-07T08:28:32.398Z,7.00
2022-12-07T08:29:32.380Z,7.80
2022-12-07T08:30:32.362Z,6.90
2022-12-07T08:31:32.406Z,6.30
2022-12-07T08:32:32.340Z,7.30
2022-12-07T08:33:32.322Z,7.00
2022-12-07T08:34:32.341Z,7.50
2022-12-07T08:35:32.302Z,7.00
2022-12-07T08:36:32.296Z,7.00
2022-12-07T08:37:32.290Z,9.30
2022-12-07T08:38:32.350Z,7.00
2022-12-07T08:39:32.905Z,6.90
2022-12-07T08:40:32.254Z,7.30
2022-12-07T08:41:32.240Z,8.20
2022-12-07T08:42:32.232Z,7.10
2022-12-07T08:43:32.217Z,7.70
2022-12-07T08:44:32.241Z,7.30
2022-12-07T08:45:32.194Z,8.50
2022-12-07T08:46:32.277Z,8.90
2022-12-07T08:47:32.175Z,7.90
2022-12-07T08:48:32.173Z,9.10
2022-12-07T08:49:32.173Z,7.40
2022-12-07T08:50:32.156Z,8.30
2022-12-07T08:51:32.135Z,8.70
2022-12-07T08:52:32.133Z,8.00
2022-12-07T08:53:32.113Z,8.20
2022-12-07T08:54:32.127Z,7.90
2022-12-07T08:55:32.086Z,6.80
2022-12-07T08:56:32.103Z,7.70
2022-12-07T08:57:32.079Z,7.50
2022-12-07T08:58:32.076Z,7.70
2022-12-07T08:59:32.067Z,8.00
2022-12-07T09:00:32.047Z,7.30
2022-12-07T09:01:32.137Z,7.20
2022-12-07T09:02:32.028Z,7.30
2022-12-07T09:03:32.009Z,7.10
2022-12-07T09:04:32.029Z,8.50
2022-12-07T09:05:32.004Z,6.90
2022-12-07T09:06:32.095Z,6.80
2022-12-07T09:07:31.970Z,7.10
2022-12-07T09:08:31.961Z,7.10
2022-12-07T09:09:31.969Z,7.00
2022-12-07T09:10:31.949Z,7.20
2022-12-07T09:11:31.927Z,7.30
2022-12-07T09:12:31.922Z,6.60
2022-12-07T09:13:31.909Z,7.30
2022-12-07T09:14:31.931Z,7.30
2022-12-07T09:15:31.892Z,7.00
2022-12-07T09:16:31.946Z,7.30
2022-12-07T09:17:31.869Z,6.90
2022-12-07T09:18:31.882Z,6.90
2022-12-07T09:19:31.860Z,5.90
2022-12-07T09:20:31.845Z,7.60
2022-12-07T09:21:31.826Z,6.90
2022-12-07T09:22:31.824Z,6.40
2022-12-07T09:23:31.805Z,7.40
2022-12-07T09:24:31.813Z,7.20
2022-12-07T09:25:31.795Z,6.30
2022-12-07T09:26:31.774Z,6.90
2022-12-07T09:27:31.766Z,7.70
2022-12-07T09:28:31.775Z,7.20
2022-12-07T09:29:31.756Z,7.50
2022-12-07T09:30:31.735Z,6.70
2022-12-07T09:31:31.790Z,6.40
2022-12-07T09:32:31.790Z,7.40
2022-12-07T09:33:31.696Z,7.00
2022-12-07T09:34:31.738Z,6.70
2022-12-07T09:35:31.691Z,6.40
2022-12-07T09:36:31.666Z,6.90
2022-12-07T09:37:31.660Z,6.60
2022-12-07T09:38:31.654Z,7.10
2022-12-07T09:39:31.660Z,6.30
2022-12-07T09:40:31.640Z,6.10
2022-12-07T09:41:31.638Z,7.00
2022-12-07T09:42:31.677Z,5.70
2022-12-07T09:43:31.598Z,6.20
2022-12-07T09:44:31.611Z,6.10
2022-12-07T09:45:31.590Z,6.20
2022-12-07T09:46:31.622Z,5.90
2022-12-07T09:47:31.559Z,6.10
2022-12-07T09:48:31.550Z,5.60
2022-12-07T09:49:31.548Z,6.30
2022-12-07T09:50:31.527Z,6.00
2022-12-07T09:51:31.511Z,5.70
2022-12-07T09:52:38.255Z,5.40
2022-12-07T09:53:32.489Z,6.10
2022-12-07T09:54:31.501Z,6.50
2022-12-07T09:55:31.469Z,6.10
2022-12-07T09:56:31.461Z,6.00
2022-12-07T09:57:31.450Z,5.90
2022-12-07T09:58:31.451Z,4.70
2022-12-07T09:59:36.485Z,5.70
2022-12-07T10:00:32.436Z,4.30
2022-12-07T10:01:31.484Z,4.10
2022-12-07T10:02:31.401Z,4.60
2022-12-07T10:03:31.391Z,4.60
2022-12-07T10:04:31.413Z,4.70
2022-12-07T10:05:31.435Z,4.80
2022-12-07T10:06:31.364Z,5.20
2022-12-07T10:07:31.346Z,4.90
2022-12-07T10:08:31.364Z,4.90
2022-12-07T10:09:31.344Z,5.20
2022-12-07T10:10:32.802Z,4.50
2022-12-07T10:11:31.305Z,4.90
2022-12-07T10:12:31.296Z,4.10
2022-12-07T10:13:31.286Z,4.20
2022-12-07T10:14:58.895Z,3.90
2022-12-07T10:15:32.257Z,3.80
2022-12-07T10:16:31.284Z,3.60
2022-12-07T10:17:31.238Z,3.80
2022-12-07T10:18:31.236Z,3.60
2022-12-07T10:19:31.247Z,3.80
2022-12-07T10:20:31.208Z,4.00
2022-12-07T10:21:31.208Z,3.50
2022-12-07T10:22:32.230Z,3.30
2022-12-07T10:23:31.180Z,4.10
2022-12-07T10:24:31.191Z,3.50
2022-12-07T10:25:31.166Z,3.70
2022-12-07T10:26:31.147Z,3.60
2022-12-07T10:27:31.150Z,4.20
2022-12-07T10:28:31.128Z,4.60
2022-12-07T10:29:31.138Z,4.00
2022-12-07T10:30:31.111Z,3.60
2022-12-07T10:31:31.170Z,3.90
2022-12-07T10:32:31.091Z,3.80
2022-12-07T10:33:31.081Z,4.20
2022-12-07T10:34:33.192Z,3.80
2022-12-07T10:35:32.062Z,3.80
2022-12-07T10:36:31.050Z,3.80
2022-12-07T10:37:31.086Z,3.70
2022-12-07T10:38:31.033Z,3.40
2022-12-07T10:39:31.034Z,3.80
2022-12-07T10:40:31.003Z,3.60
2022-12-07T10:41:31.003Z,3.70
2022-12-07T10:42:30.983Z,3.80
2022-12-07T10:43:30.974Z,3.90
2022-12-07T10:44:30.977Z,4.20
2022-12-07T10:45:31.036Z,4.30
2022-12-07T10:46:31.102Z,3.90
2022-12-07T10:47:30.966Z,4.20
2022-12-07T10:48:30.925Z,4.30
2022-12-07T10:49:30.926Z,4.80
2022-12-07T10:50:30.906Z,4.60
2022-12-07T10:51:34.643Z,4.50
2022-12-07T10:52:31.876Z,4.00
2022-12-07T10:53:30.879Z,4.20
2022-12-07T10:54:30.876Z,4.40
2022-12-07T10:55:30.855Z,4.20
2022-12-07T10:56:30.842Z,4.30
2022-12-07T10:57:30.860Z,3.80
2022-12-07T10:58:30.817Z,3.90
2022-12-07T10:59:30.832Z,4.50
2022-12-07T11:00:30.848Z,4.40
2022-12-07T11:01:30.872Z,4.50
2022-12-07T11:02:30.813Z,4.50
2022-12-07T11:03:30.770Z,4.30
2022-12-07T11:04:30.784Z,4.30
2022-12-07T11:05:30.751Z,4.50
2022-12-07T11:06:30.730Z,3.80
2022-12-07T11:07:30.729Z,3.90
2022-12-07T11:08:30.784Z,3.60
2022-12-07T11:10:00.035Z,3.50
2022-12-07T11:10:31.703Z,3.60
2022-12-07T11:11:30.700Z,3.50
2022-12-07T11:12:30.671Z,4.00
2022-12-07T11:13:30.689Z,3.90
2022-12-07T11:14:30.662Z,3.80
2022-12-07T11:15:30.647Z,4.80
2022-12-07T11:16:30.691Z,8.80
2022-12-07T11:17:30.624Z,5.20
2022-12-07T11:18:30.604Z,4.20
2022-12-07T11:19:30.622Z,4.90
2022-12-07T11:20:30.592Z,4.90
2022-12-07T11:21:30.584Z,4.70
2022-12-07T11:22:30.576Z,5.30
2022-12-07T11:23:30.563Z,3.80
2022-12-07T11:24:30.565Z,3.90
2022-12-07T11:25:30.543Z,3.50
2022-12-07T11:26:30.537Z,3.60
2022-12-07T11:27:30.524Z,3.50
2022-12-07T11:28:30.507Z,3.40
2022-12-07T11:29:30.499Z,3.50
2022-12-07T11:30:30.500Z,3.90
2022-12-07T11:31:30.555Z,3.40
2022-12-07T11:32:30.458Z,3.60
2022-12-07T11:33:30.459Z,3.70
2022-12-07T11:34:30.445Z,3.40
2022-12-07T11:35:30.449Z,3.80
2022-12-07T11:36:30.427Z,3.20
2022-12-07T11:37:34.768Z,3.50
2022-12-07T11:38:31.400Z,3.70
2022-12-07T11:39:30.406Z,3.80
2022-12-07T11:40:30.406Z,3.20
2022-12-07T11:41:30.370Z,4.10
2022-12-07T11:42:30.362Z,4.00
2022-12-07T11:43:30.357Z,3.90
2022-12-07T11:44:30.340Z,3.60
2022-12-07T11:45:30.350Z,3.40
2022-12-07T11:46:30.403Z,3.60
2022-12-07T11:47:30.312Z,3.90
2022-12-07T11:48:30.298Z,3.80
2022-12-07T11:49:30.291Z,3.50
2022-12-07T11:50:30.293Z,4.20
2022-12-07T11:51:33.517Z,4.00
2022-12-07T11:52:30.253Z,3.40
2022-12-07T11:53:30.254Z,3.90
2022-12-07T11:54:30.234Z,3.90
2022-12-07T11:55:30.252Z,4.20
2022-12-07T11:56:30.216Z,3.60
2022-12-07T11:57:30.205Z,3.50
2022-12-07T11:58:30.205Z,3.40
2022-12-07T11:59:30.196Z,4.00
2022-12-07T12:00:30.197Z,3.60
2022-12-07T12:01:30.175Z,3.50
2022-12-07T12:02:30.204Z,4.20
2022-12-07T12:03:30.208Z,3.90
2022-12-07T12:04:30.127Z,3.30
2022-12-07T12:05:30.149Z,3.80
2022-12-07T12:06:30.107Z,3.70
2022-12-07T12:10:31.095Z,3.90
2022-12-07T12:11:30.066Z,3.70
2022-12-07T12:15:30.045Z,4.00
2022-12-07T12:16:30.070Z,3.50
2022-12-07T12:17:30.010Z,4.00
2022-12-07T12:18:29.989Z,3.60
2022-12-07T12:19:29.981Z,4.10
2022-12-07T12:20:29.981Z,4.40
2022-12-07T12:21:29.961Z,4.10
2022-12-07T12:22:29.943Z,4.10
2022-12-07T12:23:29.942Z,4.30
2022-12-07T12:24:29.922Z,4.00
2022-12-07T12:25:29.933Z,4.40
2022-12-07T12:26:29.932Z,3.50
2022-12-07T12:27:29.901Z,3.60
2022-12-07T12:28:29.883Z,4.20
2022-12-07T12:29:29.875Z,3.90
2022-12-07T12:30:29.875Z,3.60
2022-12-07T12:31:29.921Z,4.40
2022-12-07T12:32:29.846Z,4.30
2022-12-07T12:33:29.834Z,3.60
2022-12-07T12:34:29.819Z,3.60
2022-12-07T12:35:29.837Z,3.70
2022-12-07T12:36:29.837Z,3.90
2022-12-07T12:37:29.787Z,4.00
2022-12-07T12:38:29.777Z,3.80
2022-12-07T12:39:29.768Z,4.10
2022-12-07T12:40:29.767Z,4.30
2022-12-07T12:41:29.752Z,3.80
2022-12-07T12:42:29.729Z,3.90
2022-12-07T12:43:29.727Z,3.50
2022-12-07T12:44:29.719Z,3.70
2022-12-07T12:45:29.774Z,3.80
2022-12-07T12:46:29.794Z,4.40
2022-12-07T12:47:29.711Z,3.60
2022-12-07T12:48:29.678Z,4.00
2022-12-07T12:49:29.669Z,4.10
2022-12-07T12:50:29.662Z,3.50
2022-12-07T12:51:29.642Z,4.20
2022-12-07T12:52:29.628Z,4.30
2022-12-07T12:53:29.622Z,3.50
2022-12-07T12:54:29.612Z,3.60
2022-12-07T12:55:29.621Z,4.30
2022-12-07T12:56:29.582Z,3.90
2022-12-07T12:57:29.583Z,3.80
2022-12-07T12:58:29.565Z,3.90
2022-12-07T12:59:29.591Z,4.00
2022-12-07T13:00:29.579Z,3.90
2022-12-07T13:01:29.633Z,4.00
2022-12-07T13:02:29.607Z,4.00
2022-12-07T13:03:29.523Z,3.90
2022-12-07T13:04:29.513Z,4.30
2022-12-07T13:05:29.555Z,4.00
2022-12-07T13:06:29.491Z,4.20
2022-12-07T13:07:29.479Z,3.70
2022-12-07T13:08:34.960Z,4.20
2022-12-07T13:09:30.456Z,4.30
2022-12-07T13:10:29.527Z,3.90
2022-12-07T13:11:29.435Z,3.40